Cangucu, Brazil
Current Conditions -  °F | °C
As of 8:37 AM on Sunday 21 Dec 2014 (Local Time) from SBSM Reporting Station
Thunderstorm Thunderstorm  
Wind Chill: 68°   Ceiling: 1000
Heat Index: 68°   Visibility: 6mi
Dew Point: 66°   Wind: 2mph
Humidity: 94%   Direction: 90°E
Pressure: 29.59"   Gusts: NA
Location:  31.4°S, 52.68°W
Report Text: SBSM 211037Z 09002KT 9999 -TSRA BKN010 SCT020 FEW030CB BKN07020/19 Q1002
Loading
Personal Weather Stations






























Interactive Weather Map New forecast layout! Learn more

10-Day Weather Forecast

Advertisements
Track Severe Weather on mobile